Time;durP1;ratioP1;P1;durP2;ratioP2;P2;SDS_P1;SDS_P2;PMS_P1;PMS_P2;Temp;Humidity;BMP_temperature;BMP_pressure;BME280_temperature;BME280_humidity;BME280_pressure;Samples;Min_cycle;Max_cycle;Signal;HPM_P1;HPM_P2
2022/12/17 13:06:44;;;;;;;46.78;23.60;;;;;;;-3.81;84.66;97017.03;4991775;28;20053;-85
2022/12/17 13:09:29;;;;;;;50.53;23.58;;;;;;;-3.77;84.67;97018.25;4992660;28;20073;-85
2022/12/17 13:12:14;;;;;;;46.97;21.73;;;;;;;-3.82;84.56;97020.72;4983549;28;20057;-87
2022/12/17 13:14:48;;;;;;;59.55;26.02;;;;;;;-3.83;84.63;97021.75;4990673;28;20050;-89
2022/12/17 13:17:27;;;;;;;48.22;25.08;;;;;;;-3.81;84.49;97017.03;4996031;28;20042;-85
2022/12/17 13:20:04;;;;;;;48.47;23.05;;;;;;;-3.76;84.77;97028.69;4996390;28;20412;-88
2022/12/17 13:22:33;;;;;;;52.92;26.23;;;;;;;-3.76;84.74;97033.19;4996216;28;20537;-88
2022/12/17 13:25:17;;;;;;;58.42;27.55;;;;;;;-3.97;85.16;97027.13;4995903;28;20125;-88
2022/12/17 13:27:44;;;;;;;55.00;24.75;;;;;;;-3.90;85.18;97029.75;4995365;28;20046;-83
2022/12/17 13:30:29;;;;;;;44.30;23.63;;;;;;;-3.85;85.05;97037.94;4996466;28;20497;-84
2022/12/17 13:33:11;;;;;;;54.75;23.70;;;;;;;-3.79;85.03;97036.28;4999639;28;20056;-84
2022/12/17 13:35:44;;;;;;;50.50;24.15;;;;;;;-3.77;84.77;97042.19;5005826;28;20057;-83
2022/12/17 13:38:20;;;;;;;52.35;25.23;;;;;;;-3.74;85.00;97047.94;4996095;28;20046;-89
2022/12/17 13:40:55;;;;;;;54.33;26.60;;;;;;;-3.72;85.24;97045.84;5005810;28;20072;-83
2022/12/17 13:43:27;;;;;;;51.33;25.30;;;;;;;-3.71;85.03;97049.34;5005469;28;20038;-86
2022/12/17 13:45:55;;;;;;;52.67;26.20;;;;;;;-3.68;85.34;97059.56;5006645;28;20077;-85
2022/12/17 13:48:24;;;;;;;53.95;26.17;;;;;;;-3.63;85.67;97056.28;5006878;28;20038;-89
2022/12/17 13:50:56;;;;;;;52.20;26.50;;;;;;;-3.58;85.47;97065.28;5003254;28;20058;-86
2022/12/17 13:53:22;;;;;;;55.83;27.10;;;;;;;-3.59;85.28;97068.97;5002435;28;20105;-88
2022/12/17 13:55:50;;;;;;;55.08;26.15;;;;;;;-3.55;85.07;97080.84;4995561;28;20049;-84
2022/12/17 13:58:25;;;;;;;51.63;24.45;;;;;;;-3.53;84.95;97077.94;4994779;28;20038;-90
2022/12/17 14:01:03;;;;;;;55.80;25.90;;;;;;;-3.52;84.76;97083.06;4993504;28;20069;-87
2022/12/17 14:03:30;;;;;;;56.78;27.38;;;;;;;-3.51;84.74;97079.34;4994298;28;20413;-84
2022/12/17 14:05:58;;;;;;;54.25;26.90;;;;;;;-3.48;84.93;97078.94;4994989;28;20049;-90
2022/12/17 14:08:30;;;;;;;55.13;25.70;;;;;;;-3.48;84.83;97084.28;4995172;28;20109;-87
2022/12/17 14:12:20;;;;;;;55.20;25.27;;;;;;;-3.49;84.48;97087.97;4998894;28;20046;-86
2022/12/17 14:13:46;;;;;;;54.35;26.48;;;;;;;-3.50;84.45;97090.81;4995874;28;20124;-88
2022/12/17 14:16:16;;;;;;;53.70;25.75;;;;;;;-3.47;84.78;97095.75;4994870;28;20138;-85
2022/12/17 14:18:46;;;;;;;50.45;26.17;;;;;;;-3.44;84.98;97095.31;4995103;28;20053;-89
2022/12/17 14:21:14;;;;;;;52.45;26.08;;;;;;;-3.46;84.38;97102.69;4994884;28;20081;-86
2022/12/17 14:23:42;;;;;;;53.58;25.15;;;;;;;-3.46;84.33;97100.03;4996181;28;20054;-86
2022/12/17 14:26:09;;;;;;;53.13;25.02;;;;;;;-3.47;84.43;97101.88;5008773;28;20038;-88
2022/12/17 14:28:44;;;;;;;50.10;24.98;;;;;;;-3.47;84.48;97096.56;5002615;28;20383;-85
2022/12/17 14:31:18;;;;;;;61.35;28.67;;;;;;;-3.47;84.45;97099.22;4995595;28;20060;-89
2022/12/17 14:33:45;;;;;;;53.40;26.58;;;;;;;-3.51;84.18;97105.97;4994658;28;20050;-89
2022/12/17 14:36:21;;;;;;;54.30;25.83;;;;;;;-3.52;84.49;97103.53;5003111;28;20129;-92
2022/12/17 14:38:53;;;;;;;55.22;26.52;;;;;;;-3.52;84.84;97103.53;5003142;28;20054;-91
2022/12/17 14:44:04;;;;;;;65.30;30.92;;;;;;;-3.51;85.18;97102.50;4993560;28;20053;-92
2022/12/17 14:46:33;;;;;;;55.63;28.27;;;;;;;-3.58;85.17;97120.34;5002368;28;20050;-94
2022/12/17 14:49:03;;;;;;;56.33;27.10;;;;;;;-3.68;84.84;97126.13;4994210;28;20054;-90
2022/12/17 14:51:35;;;;;;;53.13;27.15;;;;;;;-3.72;85.08;97119.56;4994165;28;20050;-92
2022/12/17 14:54:18;;;;;;;54.30;26.80;;;;;;;-3.77;85.19;97120.19;4994309;28;20069;-92
2022/12/17 14:56:46;;;;;;;54.53;25.70;;;;;;;-3.79;85.05;97113.44;4994119;28;20065;-93
2022/12/17 14:59:38;;;;;;;57.75;26.60;;;;;;;-3.85;85.15;97117.75;4994915;28;20038;-87
2022/12/17 15:02:18;;;;;;;50.33;25.20;;;;;;;-3.90;85.00;97122.06;4992130;28;20072;-92
2022/12/17 15:04:45;;;;;;;58.42;27.92;;;;;;;-3.94;84.90;97127.81;4993823;28;20482;-87
2022/12/17 15:07:14;;;;;;;54.30;26.98;;;;;;;-3.98;85.18;97126.56;4993927;28;20054;-94
2022/12/17 15:09:41;;;;;;;53.88;26.98;;;;;;;-3.99;85.42;97132.09;4993866;28;20050;-90
2022/12/17 15:12:08;;;;;;;63.28;29.05;;;;;;;-4.01;85.61;97136.84;4993476;28;20058;-90
2022/12/17 15:14:34;;;;;;;56.03;28.67;;;;;;;-4.07;85.56;97141.13;5002361;28;20572;-88
2022/12/17 15:17:01;;;;;;;60.22;28.38;;;;;;;-4.11;85.80;97145.22;4993049;28;20482;-92
2022/12/17 15:19:27;;;;;;;53.03;26.10;;;;;;;-4.15;85.78;97148.50;4992225;28;20058;-87
2022/12/17 15:21:54;;;;;;;59.47;28.80;;;;;;;-4.18;85.97;97149.72;4991986;28;20049;-92
2022/12/17 15:24:22;;;;;;;56.22;28.63;;;;;;;-4.21;86.27;97158.94;4991922;28;20516;-84
2022/12/17 15:26:49;;;;;;;63.00;30.13;;;;;;;-4.23;86.41;97165.47;4991358;28;20057;-86
2022/12/17 15:29:16;;;;;;;61.47;30.67;;;;;;;-4.26;86.39;97163.22;4999475;28;20050;-88
2022/12/17 15:31:42;;;;;;;58.47;30.13;;;;;;;-4.32;86.45;97162.22;4997244;28;20085;-93
2022/12/17 15:34:10;;;;;;;61.92;31.67;;;;;;;-4.32;86.41;97161.38;4998843;28;20054;-86
2022/12/17 15:36:37;;;;;;;54.53;26.27;;;;;;;-4.42;85.41;97160.97;5001963;28;20061;-94
2022/12/17 15:39:05;;;;;;;49.80;25.20;;;;;;;-4.64;83.72;97165.66;4992356;28;20077;-92
2022/12/17 15:44:17;;;;;;;48.05;22.35;;;;;;;-4.95;82.49;97167.00;4995590;28;20267;-90
2022/12/17 15:46:44;;;;;;;47.45;24.08;;;;;;;-5.07;82.69;97161.44;5001783;28;20054;-92
2022/12/17 15:49:11;;;;;;;52.55;24.02;;;;;;;-5.12;83.23;97166.53;4991596;28;20068;-94
2022/12/17 15:51:38;;;;;;;53.28;24.73;;;;;;;-5.14;83.72;97165.09;4993194;28;20115;-88
2022/12/17 15:54:04;;;;;;;59.33;28.23;;;;;;;-5.15;84.59;97166.13;4990078;28;20046;-89
2022/12/17 15:56:33;;;;;;;61.30;28.42;;;;;;;-5.16;85.22;97167.16;4998174;28;20046;-90
2022/12/17 15:59:00;;;;;;;63.03;28.52;;;;;;;-5.16;85.83;97169.78;4997535;28;20411;-87
2022/12/17 16:01:26;;;;;;;61.90;29.58;;;;;;;-5.14;86.43;97173.88;4997996;28;20050;-91
2022/12/17 16:03:53;;;;;;;61.95;29.92;;;;;;;-5.13;86.74;97169.38;4999493;28;20433;-91
2022/12/17 16:06:19;;;;;;;75.57;35.20;;;;;;;-5.11;87.50;97170.84;4990193;28;20062;-86
2022/12/17 16:08:46;;;;;;;66.93;32.40;;;;;;;-5.13;87.72;97175.50;4990261;28;20051;-89
2022/12/17 16:11:14;;;;;;;66.60;33.13;;;;;;;-5.10;87.96;97185.75;4990190;28;20054;-90
2022/12/17 16:13:43;;;;;;;72.72;33.85;;;;;;;-5.10;88.27;97169.00;4998952;28;20382;-94
2022/12/17 16:16:10;;;;;;;67.55;33.22;;;;;;;-5.11;88.42;97173.50;4991384;28;20051;-89
2022/12/17 16:18:38;;;;;;;73.35;35.47;;;;;;;-5.14;88.31;97179.19;4995464;28;20057;-87
2022/12/17 16:21:07;;;;;;;77.72;36.30;;;;;;;-5.14;88.75;97173.88;4990600;28;20497;-94
2022/12/17 16:23:33;;;;;;;70.95;33.38;;;;;;;-5.15;88.79;97172.25;4998959;28;20053;-91
2022/12/17 16:26:05;;;;;;;60.42;30.52;;;;;;;-5.22;87.62;97182.03;4991296;28;20046;-88
2022/12/17 16:28:32;;;;;;;71.00;32.40;;;;;;;-5.27;87.02;97184.47;4990996;28;20047;-81
2022/12/17 16:31:02;;;;;;;67.05;31.42;;;;;;;-5.33;86.83;97182.56;4992095;28;20052;-82
2022/12/17 16:33:32;;;;;;;65.72;30.48;;;;;;;-5.41;86.09;97186.22;4995130;28;20047;-87
2022/12/17 16:35:58;;;;;;;68.30;33.38;;;;;;;-5.48;86.04;97181.88;4992516;28;20046;-87
2022/12/17 16:38:25;;;;;;;65.35;30.98;;;;;;;-5.49;86.27;97185.56;4991786;28;20137;-83
2022/12/17 16:40:55;;;;;;;75.05;33.95;;;;;;;-5.48;86.83;97179.22;4992323;28;20042;-82
2022/12/17 16:43:22;;;;;;;66.45;30.17;;;;;;;-5.52;86.71;97182.28;4991984;28;20046;-81
2022/12/17 16:45:51;;;;;;;52.78;26.42;;;;;;;-5.69;85.91;97180.97;4991884;28;20133;-86
2022/12/17 16:48:20;;;;;;;66.03;29.08;;;;;;;-5.84;82.71;97183.75;4992195;28;20054;-84
2022/12/17 16:50:47;;;;;;;61.28;27.40;;;;;;;-6.06;81.37;97190.94;4993477;28;20478;-84
2022/12/17 16:53:14;;;;;;;55.95;25.23;;;;;;;-6.33;79.97;97189.91;5003848;28;20405;-84
2022/12/17 16:55:41;;;;;;;55.22;25.90;;;;;;;-6.60;78.47;97194.16;5009420;28;20057;-81
2022/12/17 16:58:08;;;;;;;56.03;25.40;;;;;;;-6.76;77.59;97191.75;4993603;28;20050;-82
2022/12/17 17:00:35;;;;;;;57.35;26.60;;;;;;;-6.89;77.68;97194.25;4993936;28;20054;-83
2022/12/17 17:03:02;;;;;;;61.92;26.67;;;;;;;-7.02;78.01;97191.47;4996470;28;20053;-88
2022/12/17 17:05:33;;;;;;;60.63;26.90;;;;;;;-7.15;78.42;97197.41;4998532;28;20046;-87
2022/12/17 17:08:00;;;;;;;60.08;25.85;;;;;;;-7.25;78.59;97200.38;4991293;28;20058;-83
2022/12/17 17:10:27;;;;;;;62.53;27.85;;;;;;;-7.28;79.19;97208.69;4991711;28;20132;-87
2022/12/17 17:12:54;;;;;;;57.95;28.10;;;;;;;-7.36;79.52;97203.47;4983782;28;20046;-87
2022/12/17 17:15:22;;;;;;;60.60;27.95;;;;;;;-7.46;80.02;97208.25;4991092;28;20046;-89
2022/12/17 17:17:49;;;;;;;59.30;26.42;;;;;;;-7.51;80.93;97206.16;4991784;28;20190;-93
2022/12/17 17:20:16;;;;;;;65.18;29.77;;;;;;;-7.49;81.88;97206.78;4998076;28;20128;-80
2022/12/17 17:22:44;;;;;;;68.00;30.58;;;;;;;-7.44;83.55;97206.22;4992450;28;20520;-81
2022/12/17 17:25:10;;;;;;;68.95;30.67;;;;;;;-7.38;84.55;97211.59;4989195;28;20512;-83
2022/12/17 17:27:37;;;;;;;62.97;28.48;;;;;;;-7.43;84.11;97219.25;4995856;28;20058;-86
2022/12/17 17:30:04;;;;;;;63.45;29.20;;;;;;;-7.51;83.14;97222.03;4994101;28;20058;-86
2022/12/17 17:32:31;;;;;;;60.90;28.20;;;;;;;-7.58;83.03;97225.56;4998163;28;20080;-80
2022/12/17 17:34:57;;;;;;;59.17;26.95;;;;;;;-7.64;82.67;97227.13;4993442;28;20047;-87
2022/12/17 17:37:24;;;;;;;59.97;27.65;;;;;;;-7.68;82.71;97225.81;4990829;28;20054;-84
2022/12/17 17:39:52;;;;;;;59.35;27.58;;;;;;;-7.71;82.38;97228.84;4996952;28;20043;-84
2022/12/17 17:42:18;;;;;;;57.15;26.13;;;;;;;-7.72;82.56;97235.16;4991469;28;20122;-87
2022/12/17 17:44:45;;;;;;;60.92;29.25;;;;;;;-7.70;83.39;97233.94;4990454;28;20050;-85
2022/12/17 17:47:11;;;;;;;57.75;28.92;;;;;;;-7.71;83.53;97234.16;4999080;28;20046;-91
2022/12/17 17:49:38;;;;;;;53.15;26.65;;;;;;;-7.81;83.05;97231.75;4997893;28;20050;-84
2022/12/17 17:52:04;;;;;;;60.85;26.85;;;;;;;-7.87;82.71;97232.50;4990997;28;20142;-82
2022/12/17 17:54:31;;;;;;;69.78;29.90;;;;;;;-7.85;83.12;97240.22;4998772;28;20046;-89
2022/12/17 17:57:00;;;;;;;71.47;33.97;;;;;;;-7.82;83.71;97246.00;4994988;28;20046;-90
2022/12/17 17:59:27;;;;;;;77.93;37.53;;;;;;;-7.82;86.68;97238.06;4992699;28;20046;-91
2022/12/17 18:01:53;;;;;;;80.35;34.50;;;;;;;-7.84;88.47;97244.50;4992129;28;20042;-85
2022/12/17 18:04:22;;;;;;;85.68;36.80;;;;;;;-7.95;89.92;97254.53;5003486;28;20046;-92
2022/12/17 18:06:49;;;;;;;78.43;33.10;;;;;;;-7.82;90.76;97256.56;4995693;28;20042;-92
2022/12/17 18:09:16;;;;;;;79.43;31.85;;;;;;;-7.95;90.99;97259.00;5004472;28;20042;-93
2022/12/17 18:11:43;;;;;;;103.03;31.45;;;;;;;-7.88;91.45;97262.56;4994799;28;20046;-93
2022/12/17 18:14:11;;;;;;;68.80;28.90;;;;;;;-7.80;91.39;97259.84;4994558;28;20051;-92
2022/12/17 18:16:41;;;;;;;74.88;30.27;;;;;;;-7.72;91.21;97259.78;5000295;28;20046;-88
2022/12/17 18:19:10;;;;;;;68.72;29.88;;;;;;;-7.60;91.35;97267.25;5000370;28;20046;-91
2022/12/17 18:21:37;;;;;;;75.53;29.52;;;;;;;-7.51;91.27;97267.00;5003090;28;20069;-91
2022/12/17 18:24:06;;;;;;;72.75;29.80;;;;;;;-7.42;91.61;97262.41;4999831;28;20488;-90
2022/12/17 18:26:36;;;;;;;91.82;30.65;;;;;;;-7.39;91.50;97272.66;4997461;28;20046;-87
2022/12/17 18:29:07;;;;;;;75.20;28.98;;;;;;;-7.30;91.74;97279.50;5001343;28;20046;-90
2022/12/17 18:31:35;;;;;;;74.28;29.73;;;;;;;-7.23;91.97;97277.75;5000906;28;20081;-85
2022/12/17 18:34:03;;;;;;;75.47;31.48;;;;;;;-7.17;92.42;97277.00;4994384;28;20046;-94
2022/12/17 18:36:32;;;;;;;72.22;29.75;;;;;;;-7.08;92.83;97284.88;4990897;28;20057;-93
2022/12/17 18:39:00;;;;;;;74.50;28.02;;;;;;;-7.15;93.83;97288.25;5014901;28;20041;-88
2022/12/17 18:44:12;;;;;;;81.57;32.03;;;;;;;-7.24;96.43;97291.19;4996472;28;20154;-91
2022/12/17 18:46:40;;;;;;;99.78;34.80;;;;;;;-7.08;96.14;97295.47;4994939;28;20057;-87
2022/12/17 18:49:09;;;;;;;79.47;29.42;;;;;;;-6.97;95.99;97292.34;4994924;28;20043;-91
2022/12/17 18:51:37;;;;;;;81.07;31.77;;;;;;;-6.90;96.05;97295.88;5003189;28;20046;-87
2022/12/17 18:54:05;;;;;;;78.53;31.00;;;;;;;-6.81;95.84;97297.41;4999313;28;20050;-93
2022/12/17 18:56:33;;;;;;;91.15;30.52;;;;;;;-6.73;95.72;97294.69;5006103;28;20053;-91
2022/12/17 18:59:00;;;;;;;111.63;35.10;;;;;;;-6.66;95.80;97289.44;4995023;28;20058;-92
2022/12/17 19:01:28;;;;;;;87.78;33.45;;;;;;;-6.63;95.94;97289.91;5012537;28;20046;-94
2022/12/17 19:03:58;;;;;;;82.70;30.70;;;;;;;-6.51;96.00;97300.03;4991829;28;20046;-94
2022/12/17 19:06:24;;;;;;;90.45;33.33;;;;;;;-6.51;96.07;97289.41;5014704;28;20050;-86
2022/12/17 19:08:51;;;;;;;88.78;33.88;;;;;;;-6.46;95.92;97294.97;4994947;28;20494;-88
2022/12/17 19:11:19;;;;;;;91.03;33.83;;;;;;;-6.40;95.85;97303.00;4994326;28;20069;-87
2022/12/17 19:13:47;;;;;;;88.35;33.22;;;;;;;-6.32;95.71;97302.88;4993671;28;20050;-86
2022/12/17 19:16:16;;;;;;;98.80;35.42;;;;;;;-6.24;95.16;97293.97;4999509;28;20041;-89
2022/12/17 19:18:43;;;;;;;102.85;34.78;;;;;;;-6.20;94.44;97305.84;4994841;28;20046;-89
2022/12/17 19:21:14;;;;;;;95.25;34.95;;;;;;;-6.28;94.36;97313.91;5002423;28;20053;-86
2022/12/17 19:23:41;;;;;;;89.75;34.63;;;;;;;-6.29;94.53;97311.47;5005586;28;20042;-83
2022/12/17 19:26:09;;;;;;;97.18;35.00;;;;;;;-6.25;94.18;97313.56;5001973;28;20053;-87
2022/12/17 19:28:36;;;;;;;100.55;34.35;;;;;;;-6.25;93.61;97316.19;4993591;28;20046;-84
2022/12/17 19:31:03;;;;;;;92.65;34.72;;;;;;;-6.25;93.69;97318.84;4998458;28;20065;-80
2022/12/17 19:33:29;;;;;;;110.40;38.95;;;;;;;-6.26;93.63;97317.22;5004343;28;20092;-89
2022/12/17 19:36:00;;;;;;;80.07;32.58;;;;;;;-6.24;93.68;97312.53;4993093;28;20042;-84
2022/12/17 19:38:28;;;;;;;96.90;35.55;;;;;;;-6.35;93.27;97313.84;4993667;28;20050;-88
2022/12/17 19:40:55;;;;;;;85.82;33.63;;;;;;;-6.37;93.17;97315.03;4986243;28;20043;-90
2022/12/17 19:43:21;;;;;;;80.95;32.15;;;;;;;-6.44;92.67;97314.97;4993244;28;20052;-87
2022/12/17 19:45:49;;;;;;;81.88;32.28;;;;;;;-6.47;92.20;97319.81;4993387;28;20062;-84
2022/12/17 19:48:16;;;;;;;79.18;31.88;;;;;;;-6.44;92.08;97316.81;4992846;28;20058;-83
2022/12/17 19:50:42;;;;;;;73.85;30.13;;;;;;;-6.41;92.03;97324.38;5001017;28;20066;-87
2022/12/17 19:53:09;;;;;;;83.13;32.95;;;;;;;-6.41;91.69;97335.00;4992783;28;20043;-85
2022/12/17 19:55:37;;;;;;;81.50;32.28;;;;;;;-6.39;91.05;97327.66;4992233;28;20050;-86
2022/12/17 19:58:04;;;;;;;76.60;31.67;;;;;;;-6.52;91.08;97327.53;5004994;28;20053;-83
2022/12/17 20:00:30;;;;;;;77.65;32.13;;;;;;;-6.59;90.93;97338.84;4992466;28;20068;-88
2022/12/17 20:02:58;;;;;;;79.78;31.98;;;;;;;-6.61;90.79;97340.88;4992853;28;20121;-86
2022/12/17 20:05:24;;;;;;;72.63;31.75;;;;;;;-6.63;90.55;97340.25;4992239;28;20049;-83
2022/12/17 20:07:51;;;;;;;72.82;32.05;;;;;;;-6.65;89.98;97342.25;4992036;28;20050;-83
2022/12/17 20:10:17;;;;;;;78.07;30.90;;;;;;;-6.69;90.09;97343.59;4998378;28;20056;-82
2022/12/17 20:12:45;;;;;;;77.30;33.90;;;;;;;-6.73;89.55;97336.22;4992558;28;20057;-80
2022/12/17 20:15:12;;;;;;;87.45;34.88;;;;;;;-6.80;89.83;97336.13;4991839;28;20517;-80
2022/12/17 20:17:38;;;;;;;89.63;32.70;;;;;;;-6.90;90.30;97335.59;4991236;28;20486;-84
2022/12/17 20:20:06;;;;;;;85.05;33.85;;;;;;;-6.89;90.44;97343.38;4991624;28;20046;-81
2022/12/17 20:22:32;;;;;;;73.85;31.30;;;;;;;-6.78;90.33;97339.44;4999495;28;20046;-82
2022/12/17 20:25:00;;;;;;;79.47;34.17;;;;;;;-6.83;90.12;97347.13;4991327;28;20406;-83
2022/12/17 20:27:27;;;;;;;74.18;32.45;;;;;;;-6.82;89.90;97343.47;4991558;28;20509;-79
2022/12/17 20:29:55;;;;;;;79.28;33.55;;;;;;;-6.77;89.57;97343.72;4995255;28;20054;-80
2022/12/17 20:32:21;;;;;;;84.90;33.80;;;;;;;-6.78;89.37;97344.75;5004011;28;20050;-82
2022/12/17 20:34:48;;;;;;;86.10;33.67;;;;;;;-6.72;89.77;97344.00;4991126;28;20054;-80
2022/12/17 20:37:14;;;;;;;82.03;33.00;;;;;;;-6.75;90.93;97344.34;4991548;28;20053;-79
2022/12/17 20:39:41;;;;;;;92.22;33.58;;;;;;;-6.70;91.28;97341.16;4998943;28;20045;-82
2022/12/17 20:42:08;;;;;;;97.53;36.55;;;;;;;-6.69;91.79;97340.97;4991261;28;20050;-81
2022/12/17 20:44:34;;;;;;;99.68;35.58;;;;;;;-6.66;92.34;97348.56;4991173;28;20050;-84
2022/12/17 20:47:02;;;;;;;88.25;34.53;;;;;;;-6.57;92.33;97336.03;4999474;28;20050;-81
2022/12/17 20:49:29;;;;;;;87.07;34.75;;;;;;;-6.50;92.45;97334.28;4993611;28;20058;-86
2022/12/17 20:51:55;;;;;;;88.65;34.40;;;;;;;-6.43;92.46;97343.09;4990592;28;20536;-80
2022/12/17 20:54:22;;;;;;;93.57;35.00;;;;;;;-6.38;92.62;97353.16;4998651;28;20049;-83
2022/12/17 20:56:49;;;;;;;93.45;35.00;;;;;;;-6.38;92.71;97347.84;4991257;28;20050;-82
2022/12/17 20:59:17;;;;;;;104.40;36.97;;;;;;;-6.35;92.95;97340.34;4994141;28;20144;-77
2022/12/17 21:01:44;;;;;;;102.22;36.95;;;;;;;-6.31;93.05;97344.28;4989406;28;20042;-84
2022/12/17 21:04:13;;;;;;;98.60;36.10;;;;;;;-6.28;93.34;97340.41;4991184;28;20039;-83
2022/12/17 21:06:41;;;;;;;91.97;35.90;;;;;;;-6.19;93.33;97349.91;5000687;28;20051;-79
2022/12/17 21:09:08;;;;;;;105.70;37.00;;;;;;;-6.12;93.44;97345.47;4996775;28;20043;-81
2022/12/17 21:11:36;;;;;;;110.32;37.20;;;;;;;-6.08;93.45;97341.44;4998792;28;20405;-83
2022/12/17 21:14:04;;;;;;;110.75;40.78;;;;;;;-6.10;93.86;97348.78;4991100;28;20043;-79
2022/12/17 21:16:32;;;;;;;102.43;37.20;;;;;;;-6.03;93.68;97353.31;4990949;28;20050;-82
2022/12/17 21:18:59;;;;;;;99.85;35.75;;;;;;;-6.15;94.30;97347.72;4990129;28;20042;-84
2022/12/17 21:21:30;;;;;;;96.18;36.30;;;;;;;-6.06;94.46;97352.69;4990793;28;20050;-80
2022/12/17 21:23:57;;;;;;;106.60;37.03;;;;;;;-6.05;94.57;97357.00;4990814;28;20046;-83
2022/12/17 21:26:26;;;;;;;96.45;36.10;;;;;;;-5.99;94.53;97350.13;4989555;28;20053;-79
2022/12/17 21:28:59;;;;;;;113.05;36.85;;;;;;;-6.03;94.58;97353.31;5000050;28;20132;-84
2022/12/17 21:31:27;;;;;;;106.22;38.78;;;;;;;-6.08;95.27;97356.53;4989913;28;20051;-84
2022/12/17 21:33:56;;;;;;;99.00;35.33;;;;;;;-6.06;95.21;97355.31;4981619;28;20042;-85
2022/12/17 21:36:24;;;;;;;110.20;38.05;;;;;;;-5.97;95.06;97352.56;4990179;28;20046;-80
2022/12/17 21:38:52;;;;;;;101.70;36.80;;;;;;;-5.96;94.80;97362.16;4994297;28;20053;-79
2022/12/17 21:41:23;;;;;;;104.65;37.03;;;;;;;-6.08;94.97;97362.66;4994478;28;20406;-80
2022/12/17 21:43:52;;;;;;;109.40;35.80;;;;;;;-5.96;95.02;97373.59;4994325;28;20057;-80
2022/12/17 21:46:19;;;;;;;103.15;37.03;;;;;;;-5.94;95.03;97370.75;4993751;28;20054;-81
2022/12/17 21:48:45;;;;;;;105.07;37.15;;;;;;;-5.96;94.54;97370.94;4993649;28;20046;-82
2022/12/17 21:51:14;;;;;;;103.50;36.50;;;;;;;-5.91;94.62;97362.41;4994219;28;20050;-80
2022/12/17 21:53:42;;;;;;;99.03;37.03;;;;;;;-5.97;94.67;97357.88;4993855;28;20050;-85
2022/12/17 21:56:12;;;;;;;92.13;35.15;;;;;;;-5.97;94.88;97363.19;5000086;28;20049;-79
2022/12/17 21:58:39;;;;;;;96.75;36.58;;;;;;;-5.96;94.92;97367.47;4994767;28;20057;-81
2022/12/17 22:01:11;;;;;;;102.75;36.13;;;;;;;-5.95;95.16;97371.75;4996513;28;20049;-81
2022/12/17 22:03:38;;;;;;;90.13;36.17;;;;;;;-5.95;95.39;97367.28;4995485;28;20043;-84
2022/12/17 22:06:06;;;;;;;100.63;35.35;;;;;;;-5.91;95.29;97367.72;5000429;28;20046;-82
2022/12/17 22:08:33;;;;;;;94.47;34.50;;;;;;;-5.92;95.35;97371.38;4994594;28;20493;-82
2022/12/17 22:11:00;;;;;;;103.57;34.97;;;;;;;-5.92;95.36;97372.22;5009233;28;20042;-82
2022/12/17 22:16:12;;;;;;;107.53;36.75;;;;;;;-5.88;95.57;97367.31;4988447;28;20508;-83
2022/12/17 22:18:40;;;;;;;94.18;34.42;;;;;;;-5.88;95.69;97367.31;4993341;28;20057;-83
2022/12/17 22:21:06;;;;;;;94.03;33.50;;;;;;;-5.91;95.66;97370.38;4993475;28;20042;-80
2022/12/17 22:23:33;;;;;;;86.95;32.65;;;;;;;-5.89;95.62;97371.00;4993538;28;20050;-81
2022/12/17 22:25:59;;;;;;;94.47;34.75;;;;;;;-5.88;95.65;97367.31;4993639;28;20054;-85
2022/12/17 22:28:27;;;;;;;102.22;36.20;;;;;;;-5.84;95.88;97368.59;4993579;28;20046;-80
2022/12/17 22:33:38;;;;;;;100.13;33.65;;;;;;;-5.82;95.58;97374.53;4992803;28;20080;-81
2022/12/17 22:36:05;;;;;;;99.43;35.33;;;;;;;-5.82;95.91;97372.69;4993928;28;20074;-81
2022/12/17 22:38:32;;;;;;;93.07;32.65;;;;;;;-5.82;96.03;97380.63;5001142;28;20053;-79
2022/12/17 22:41:04;;;;;;;94.47;32.90;;;;;;;-5.84;95.76;97384.50;4993390;28;20055;-80
2022/12/17 22:43:32;;;;;;;99.88;32.10;;;;;;;-5.86;95.82;97389.16;4993476;28;20466;-79
2022/12/17 22:46:00;;;;;;;91.60;32.20;;;;;;;-5.81;96.18;97389.41;4993617;28;20046;-79
2022/12/17 22:48:27;;;;;;;93.43;31.63;;;;;;;-5.78;96.02;97395.19;4993209;28;20207;-80
2022/12/17 22:50:54;;;;;;;98.55;29.48;;;;;;;-5.80;96.08;97391.06;4993818;28;20180;-80
2022/12/17 22:53:21;;;;;;;76.82;30.10;;;;;;;-5.72;96.19;97393.59;5001089;28;20054;-80
2022/12/17 22:55:48;;;;;;;80.97;27.55;;;;;;;-5.69;95.89;97392.38;5000887;28;22066;-80
2022/12/17 22:58:14;;;;;;;77.95;27.50;;;;;;;-5.69;95.94;97397.69;4993374;28;20050;-78
2022/12/17 23:00:42;;;;;;;74.03;27.30;;;;;;;-5.76;95.81;97397.63;4996561;28;20050;-81
2022/12/17 23:03:09;;;;;;;86.82;29.63;;;;;;;-5.72;95.83;97393.59;4993780;28;20038;-79
2022/12/17 23:05:35;;;;;;;79.78;28.02;;;;;;;-5.78;96.07;97397.00;4993131;28;20137;-83
2022/12/17 23:08:02;;;;;;;74.85;28.42;;;;;;;-5.72;96.03;97398.09;4993427;28;20050;-78
2022/12/17 23:10:29;;;;;;;72.80;27.60;;;;;;;-5.71;95.80;97405.84;5000727;28;20053;-83
2022/12/17 23:12:55;;;;;;;86.00;29.45;;;;;;;-5.79;95.42;97396.19;4992843;28;20145;-88
2022/12/17 23:15:25;;;;;;;81.28;29.38;;;;;;;-5.82;95.70;97395.75;4993095;28;20042;-84
2022/12/17 23:17:57;;;;;;;77.30;26.88;;;;;;;-5.75;95.80;97396.63;4993281;28;20070;-79
2022/12/17 23:20:24;;;;;;;83.75;29.73;;;;;;;-5.72;95.77;97398.91;4993241;28;20061;-82
2022/12/17 23:22:51;;;;;;;80.18;28.35;;;;;;;-5.73;95.83;97394.63;5001125;28;20053;-85
2022/12/17 23:25:17;;;;;;;91.68;29.83;;;;;;;-5.70;95.73;97391.56;4999329;28;20049;-84
2022/12/17 23:27:44;;;;;;;78.47;27.27;;;;;;;-5.67;96.04;97396.50;4993790;28;20058;-84
2022/12/17 23:30:13;;;;;;;76.80;27.73;;;;;;;-5.65;95.97;97399.78;4992140;28;20042;-82
2022/12/17 23:32:40;;;;;;;76.75;26.35;;;;;;;-5.64;95.95;97396.09;5000241;28;20479;-79
2022/12/17 23:35:08;;;;;;;72.35;25.90;;;;;;;-5.60;95.50;97392.06;4986021;28;20505;-82
2022/12/17 23:37:35;;;;;;;73.32;26.35;;;;;;;-5.65;95.39;97397.13;4992409;28;20398;-84
2022/12/17 23:40:02;;;;;;;70.80;25.85;;;;;;;-5.59;95.46;97393.69;4992220;28;20047;-83
2022/12/17 23:42:28;;;;;;;73.80;26.63;;;;;;;-5.56;95.50;97390.69;4992198;28;20076;-78
2022/12/17 23:44:55;;;;;;;71.95;28.02;;;;;;;-5.53;95.46;97395.63;4993916;28;20042;-81
2022/12/17 23:47:22;;;;;;;76.63;27.27;;;;;;;-5.61;95.30;97394.91;4999476;28;20542;-82
2022/12/17 23:49:48;;;;;;;67.88;25.13;;;;;;;-5.62;95.42;97382.66;4992486;28;20057;-83
2022/12/17 23:52:16;;;;;;;69.90;25.67;;;;;;;-5.63;95.26;97387.16;4992260;28;20125;-87
2022/12/17 23:54:43;;;;;;;65.25;23.88;;;;;;;-5.61;95.43;97386.97;4999879;28;20049;-80
2022/12/17 23:57:09;;;;;;;69.03;24.77;;;;;;;-5.62;95.38;97380.84;4991931;28;20514;-79
2022/12/17 23:59:36;;;;;;;67.93;25.17;;;;;;;-5.58;95.37;97379.44;4992247;28;20053;-83
